createdAt,value
2018-01-27T00:00:40.907Z,0
2018-01-27T00:01:49.738Z,0
2018-01-27T00:02:58.569Z,0
2018-01-27T00:04:07.401Z,0
2018-01-27T00:05:16.509Z,0
2018-01-27T00:06:25.611Z,0
2018-01-27T00:07:34.440Z,0
2018-01-27T00:08:43.268Z,0
2018-01-27T00:09:52.100Z,0
2018-01-27T00:11:00.931Z,0
2018-01-27T00:12:09.763Z,0
2018-01-27T00:13:18.865Z,0
2018-01-27T00:14:27.696Z,0
2018-01-27T00:15:36.626Z,0
2018-01-27T00:16:45.457Z,0
2018-01-27T00:17:54.289Z,0
2018-01-27T00:19:03.120Z,0
2018-01-27T00:20:12.228Z,0
2018-01-27T00:21:21.059Z,0
2018-01-27T00:22:29.891Z,0
2018-01-27T00:23:38.721Z,0
2018-01-27T00:24:47.549Z,0
2018-01-27T00:25:56.380Z,0
2018-01-27T00:27:05.363Z,0
2018-01-27T00:28:14.468Z,0
2018-01-27T00:29:23.299Z,0
2018-01-27T00:30:32.131Z,0
2018-01-27T00:31:41.012Z,0
2018-01-27T00:32:49.844Z,0
2018-01-27T00:33:58.671Z,0
2018-01-27T00:35:07.501Z,0
2018-01-27T00:36:16.333Z,0
2018-01-27T00:37:25.160Z,0
2018-01-27T00:38:33.990Z,0
2018-01-27T00:39:43.094Z,0
2018-01-27T00:40:51.924Z,0
2018-01-27T00:42:00.756Z,0
2018-01-27T00:43:09.585Z,0
2018-01-27T00:44:18.716Z,0
2018-01-27T00:45:27.546Z,0
2018-01-27T00:46:36.377Z,0
2018-01-27T00:47:45.206Z,0
2018-01-27T00:48:54.035Z,0
2018-01-27T00:50:02.866Z,0
2018-01-27T00:51:11.696Z,0
2018-01-27T00:52:20.526Z,0
2018-01-27T00:53:29.358Z,0
2018-01-27T00:54:38.188Z,0
2018-01-27T00:55:47.393Z,0
2018-01-27T00:56:56.223Z,0
2018-01-27T00:58:05.055Z,0
2018-01-27T00:59:13.887Z,0
2018-01-27T01:00:22.719Z,0
2018-01-27T01:01:31.748Z,0
2018-01-27T01:02:40.578Z,0
2018-01-27T01:03:49.409Z,0
2018-01-27T01:04:58.242Z,0
2018-01-27T01:06:07.075Z,0
2018-01-27T01:07:16.155Z,0
2018-01-27T01:08:24.985Z,0
2018-01-27T01:09:33.815Z,0
2018-01-27T01:10:42.645Z,0
2018-01-27T01:11:51.477Z,0
2018-01-27T01:13:00.607Z,0
2018-01-27T01:14:09.708Z,0
2018-01-27T01:15:18.541Z,0
2018-01-27T01:16:27.646Z,0
2018-01-27T01:17:36.753Z,0
2018-01-27T01:18:45.834Z,0
2018-01-27T01:19:54.664Z,0
2018-01-27T01:21:03.493Z,0
2018-01-27T01:22:12.326Z,0
2018-01-27T01:23:21.434Z,0
2018-01-27T01:24:30.464Z,0
2018-01-27T01:25:39.294Z,0
2018-01-27T01:26:48.121Z,0
2018-01-27T01:27:56.953Z,0
2018-01-27T01:29:05.795Z,0
2018-01-27T01:30:14.995Z,0
2018-01-27T01:31:23.824Z,0
2018-01-27T01:32:32.658Z,0
2018-01-27T01:33:41.488Z,0
2018-01-27T01:34:50.317Z,0
2018-01-27T01:36:00.051Z,0
2018-01-27T01:37:08.881Z,0
2018-01-27T01:38:17.711Z,0
2018-01-27T01:39:26.541Z,0
2018-01-27T01:40:35.370Z,0
2018-01-27T01:41:44.502Z,0
2018-01-27T01:42:53.334Z,0
2018-01-27T01:44:02.448Z,0
2018-01-27T01:45:11.277Z,0
2018-01-27T01:46:20.107Z,0
2018-01-27T01:47:28.937Z,0
2018-01-27T01:48:37.769Z,0
2018-01-27T01:49:46.602Z,0
2018-01-27T01:50:55.430Z,0
2018-01-27T01:52:04.261Z,0
2018-01-27T01:53:13.670Z,0
2018-01-27T01:54:22.506Z,0
2018-01-27T01:55:31.608Z,0
2018-01-27T01:56:40.439Z,0
2018-01-27T01:57:49.271Z,0
2018-01-27T01:58:58.504Z,0
2018-01-27T02:00:07.333Z,0
2018-01-27T02:01:16.163Z,0
2018-01-27T02:02:24.996Z,0
2018-01-27T02:03:33.844Z,0
2018-01-27T02:04:42.673Z,0
2018-01-27T02:05:51.503Z,0
2018-01-27T02:07:00.332Z,0
2018-01-27T02:08:09.163Z,0
2018-01-27T02:09:17.993Z,0
2018-01-27T02:10:27.626Z,0
2018-01-27T02:11:36.459Z,0
2018-01-27T02:12:45.287Z,0
2018-01-27T02:13:54.117Z,0
2018-01-27T02:15:02.948Z,0
2018-01-27T02:16:11.779Z,0
2018-01-27T02:17:20.609Z,0
2018-01-27T02:18:29.441Z,0
2018-01-27T02:19:38.274Z,0
2018-01-27T02:20:47.100Z,0
2018-01-27T02:21:56.230Z,0
2018-01-27T02:23:05.059Z,0
2018-01-27T02:24:13.889Z,0
2018-01-27T02:25:22.719Z,0
2018-01-27T02:26:31.551Z,0
2018-01-27T02:27:41.908Z,0
2018-01-27T02:28:50.740Z,0
2018-01-27T02:29:59.570Z,0
2018-01-27T02:31:08.402Z,0
2018-01-27T02:32:17.233Z,0
2018-01-27T02:33:26.063Z,0
2018-01-27T02:34:34.895Z,0
2018-01-27T02:35:43.726Z,0
2018-01-27T02:36:52.557Z,0
2018-01-27T02:38:01.384Z,0
2018-01-27T02:39:10.214Z,0
2018-01-27T02:40:19.046Z,0
2018-01-27T02:41:28.151Z,0
2018-01-27T02:42:36.984Z,0
2018-01-27T02:43:46.089Z,0
2018-01-27T02:44:54.923Z,0
2018-01-27T02:46:03.751Z,0
2018-01-27T02:47:12.580Z,0
2018-01-27T02:48:21.412Z,0
2018-01-27T02:49:30.241Z,0
2018-01-27T02:50:39.226Z,0
2018-01-27T02:51:48.334Z,0
2018-01-27T02:52:57.164Z,0
2018-01-27T02:54:05.992Z,0
2018-01-27T02:55:14.821Z,0
2018-01-27T02:56:23.953Z,0
2018-01-27T02:57:32.783Z,0
2018-01-27T02:58:41.663Z,0
2018-01-27T02:59:50.496Z,0
2018-01-27T03:00:59.326Z,0
2018-01-27T03:02:08.158Z,0
2018-01-27T03:03:16.991Z,0
2018-01-27T03:04:25.821Z,0
2018-01-27T03:05:34.653Z,0
2018-01-27T03:06:43.481Z,0
2018-01-27T03:07:52.411Z,0
2018-01-27T03:09:01.245Z,0
2018-01-27T03:10:10.348Z,0
2018-01-27T03:11:19.181Z,0
2018-01-27T03:12:28.014Z,0
2018-01-27T03:13:36.944Z,0
2018-01-27T03:14:45.779Z,0
2018-01-27T03:15:54.606Z,0
2018-01-27T03:17:03.436Z,0
2018-01-27T03:18:12.268Z,0
2018-01-27T03:19:21.098Z,0
2018-01-27T03:20:30.200Z,0
2018-01-27T03:21:39.029Z,0
2018-01-27T03:22:48.136Z,0
2018-01-27T03:23:56.966Z,0
2018-01-27T03:25:05.799Z,0
2018-01-27T03:26:14.629Z,0
2018-01-27T03:27:23.459Z,0
2018-01-27T03:28:32.290Z,0
2018-01-27T03:29:41.153Z,0
2018-01-27T03:30:50.013Z,0
2018-01-27T03:31:59.126Z,0
2018-01-27T03:33:07.959Z,0
2018-01-27T03:34:16.837Z,0
2018-01-27T03:35:25.671Z,0
2018-01-27T03:36:34.848Z,0
2018-01-27T03:37:43.679Z,0
2018-01-27T03:38:52.509Z,0
2018-01-27T03:40:01.339Z,0
2018-01-27T03:41:10.173Z,0
2018-01-27T03:42:19.003Z,0
2018-01-27T03:43:27.834Z,0
2018-01-27T03:44:36.939Z,0
2018-01-27T03:45:45.769Z,0
2018-01-27T03:46:54.598Z,0
2018-01-27T03:48:03.480Z,0
2018-01-27T03:49:12.310Z,0
2018-01-27T03:50:21.140Z,0
2018-01-27T03:51:29.968Z,0
2018-01-27T03:52:38.803Z,0
2018-01-27T03:53:47.630Z,0
2018-01-27T03:54:56.460Z,0
2018-01-27T03:56:05.290Z,0
2018-01-27T03:57:14.120Z,0
2018-01-27T03:58:22.950Z,0
2018-01-27T03:59:32.202Z,0
2018-01-27T04:00:41.032Z,0
2018-01-27T04:01:49.863Z,0
2018-01-27T04:02:58.969Z,0
2018-01-27T04:04:07.805Z,0
2018-01-27T04:05:16.730Z,0
2018-01-27T04:06:25.836Z,0
2018-01-27T04:07:34.668Z,0
2018-01-27T04:08:43.498Z,0
2018-01-27T04:09:52.328Z,0
2018-01-27T04:11:01.582Z,0
2018-01-27T04:12:10.685Z,0
2018-01-27T04:13:19.515Z,0
2018-01-27T04:14:28.624Z,0
2018-01-27T04:15:37.454Z,0
2018-01-27T04:16:46.334Z,0
2018-01-27T04:17:55.165Z,0
2018-01-27T04:19:03.993Z,0
2018-01-27T04:20:12.823Z,0
2018-01-27T04:21:21.653Z,0
2018-01-27T04:22:30.483Z,0
2018-01-27T04:23:39.311Z,0
2018-01-27T04:24:48.141Z,0
2018-01-27T04:25:56.969Z,0
2018-01-27T04:27:05.803Z,0
2018-01-27T04:28:14.683Z,0
2018-01-27T04:29:23.512Z,0
2018-01-27T04:30:32.342Z,0
2018-01-27T04:31:41.173Z,0
2018-01-27T04:32:50.005Z,0
2018-01-27T04:33:58.981Z,0
2018-01-27T04:35:07.809Z,0
2018-01-27T04:36:16.641Z,0
2018-01-27T04:37:25.472Z,0
2018-01-27T04:38:34.299Z,0
2018-01-27T04:39:43.278Z,0
2018-01-27T04:40:52.105Z,0
2018-01-27T04:42:00.932Z,0
2018-01-27T04:43:09.762Z,0
2018-01-27T04:44:18.595Z,0
2018-01-27T04:45:27.523Z,0
2018-01-27T04:46:36.349Z,0
2018-01-27T04:47:45.179Z,0
2018-01-27T04:48:54.009Z,0
2018-01-27T04:50:02.837Z,0
2018-01-27T04:51:11.717Z,0
2018-01-27T04:52:20.549Z,0
2018-01-27T04:53:29.379Z,0
2018-01-27T04:54:38.483Z,0
2018-01-27T04:55:47.321Z,0
2018-01-27T04:56:56.300Z,0
2018-01-27T04:58:05.129Z,0
2018-01-27T04:59:14.232Z,0
2018-01-27T05:00:23.337Z,0
2018-01-27T05:01:32.166Z,0
2018-01-27T05:02:41.062Z,0
2018-01-27T05:03:49.872Z,0
2018-01-27T05:04:58.701Z,0
2018-01-27T05:06:07.529Z,0
2018-01-27T05:07:16.358Z,0
2018-01-27T05:08:25.489Z,0
2018-01-27T05:09:34.319Z,0
2018-01-27T05:10:43.148Z,0
2018-01-27T05:11:52.523Z,0
2018-01-27T05:13:01.353Z,0
2018-01-27T05:14:10.431Z,0
2018-01-27T05:15:19.258Z,0
2018-01-27T05:16:28.086Z,0
2018-01-27T05:17:36.913Z,0
2018-01-27T05:18:45.740Z,0
2018-01-27T05:19:54.569Z,0
2018-01-27T05:21:03.398Z,0
2018-01-27T05:22:12.227Z,0
2018-01-27T05:23:21.057Z,0
2018-01-27T05:24:29.887Z,0
2018-01-27T05:25:38.767Z,0
2018-01-27T05:26:47.865Z,0
2018-01-27T05:27:56.699Z,0
2018-01-27T05:29:05.526Z,0
2018-01-27T05:30:14.355Z,0
2018-01-27T05:31:23.184Z,0
2018-01-27T05:32:32.013Z,0
2018-01-27T05:33:40.842Z,0
2018-01-27T05:34:49.940Z,0
2018-01-27T05:35:58.770Z,0
2018-01-27T05:37:07.749Z,0
2018-01-27T05:38:16.577Z,0
2018-01-27T05:39:25.971Z,0
2018-01-27T05:40:34.796Z,0
2018-01-27T05:41:43.625Z,0
2018-01-27T05:42:52.507Z,0
2018-01-27T05:44:01.332Z,0
2018-01-27T05:45:10.159Z,0
2018-01-27T05:46:18.988Z,0
2018-01-27T05:47:27.820Z,0
2018-01-27T05:48:36.650Z,0
2018-01-27T05:49:45.479Z,0
2018-01-27T05:50:54.310Z,0
2018-01-27T05:52:03.139Z,0
2018-01-27T05:53:11.971Z,0
2018-01-27T05:54:21.102Z,0
2018-01-27T05:55:29.932Z,0
2018-01-27T05:56:38.758Z,0
2018-01-27T05:57:47.594Z,0
2018-01-27T05:58:56.423Z,0
2018-01-27T06:00:05.253Z,0
2018-01-27T06:01:14.082Z,0
2018-01-27T06:02:22.910Z,0
2018-01-27T06:03:32.025Z,0
2018-01-27T06:04:40.855Z,0
2018-01-27T06:05:49.985Z,0
2018-01-27T06:06:58.816Z,0
2018-01-27T06:08:07.645Z,0
2018-01-27T06:09:16.474Z,0
2018-01-27T06:10:25.577Z,0
2018-01-27T06:11:34.456Z,0
2018-01-27T06:12:43.284Z,0
2018-01-27T06:13:52.388Z,0
2018-01-27T06:15:01.490Z,0
2018-01-27T06:16:10.321Z,0
2018-01-27T06:17:19.155Z,0
2018-01-27T06:18:27.983Z,0
2018-01-27T06:19:36.814Z,0
2018-01-27T06:20:45.643Z,0
2018-01-27T06:21:54.471Z,0
2018-01-27T06:23:03.401Z,0
2018-01-27T06:24:12.230Z,0
2018-01-27T06:25:21.058Z,0
2018-01-27T06:26:29.889Z,0
2018-01-27T06:27:38.996Z,0
2018-01-27T06:28:48.125Z,0
2018-01-27T06:29:56.960Z,0
2018-01-27T06:31:06.063Z,0
2018-01-27T06:32:15.173Z,0
2018-01-27T06:33:24.004Z,0
2018-01-27T06:34:32.983Z,0
2018-01-27T06:35:41.813Z,0
2018-01-27T06:36:50.642Z,0
2018-01-27T06:37:59.472Z,0
2018-01-27T06:39:08.302Z,0
2018-01-27T06:40:17.130Z,0
2018-01-27T06:41:25.960Z,0
2018-01-27T06:42:34.791Z,0
2018-01-27T06:43:43.622Z,0
2018-01-27T06:44:52.727Z,0
2018-01-27T06:46:01.706Z,0
2018-01-27T06:47:10.535Z,0
2018-01-27T06:48:19.367Z,0
2018-01-27T06:49:28.196Z,0
2018-01-27T06:50:37.024Z,0
2018-01-27T06:51:46.003Z,0
2018-01-27T06:52:54.840Z,0
2018-01-27T06:54:03.942Z,0
2018-01-27T06:55:12.771Z,0
2018-01-27T06:56:21.872Z,0
2018-01-27T06:57:30.951Z,0
2018-01-27T06:58:39.782Z,0
2018-01-27T06:59:48.608Z,0
2018-01-27T07:00:57.440Z,0
2018-01-27T07:02:06.269Z,0
2018-01-27T07:03:15.247Z,0
2018-01-27T07:04:24.078Z,0
2018-01-27T07:05:32.906Z,0
2018-01-27T07:06:41.737Z,0
2018-01-27T07:07:50.566Z,0
2018-01-27T07:08:59.447Z,0
2018-01-27T07:10:08.275Z,0
2018-01-27T07:11:17.107Z,0
2018-01-27T07:12:25.936Z,0
2018-01-27T07:13:34.764Z,0
2018-01-27T07:14:43.895Z,0
2018-01-27T07:15:53.006Z,0
2018-01-27T07:17:01.839Z,0
2018-01-27T07:18:10.672Z,0
2018-01-27T07:19:19.501Z,0
2018-01-27T07:20:28.529Z,0
2018-01-27T07:21:37.632Z,0
2018-01-27T07:22:46.463Z,0
2018-01-27T07:23:55.294Z,5
2018-01-27T07:25:04.122Z,5
2018-01-27T07:26:12.952Z,5
2018-01-27T07:27:21.782Z,5
2018-01-27T07:28:30.612Z,10
2018-01-27T07:29:39.444Z,10
2018-01-27T07:30:48.274Z,10
2018-01-27T07:31:57.104Z,10
2018-01-27T07:33:05.930Z,15
2018-01-27T07:34:14.761Z,15
2018-01-27T07:35:23.591Z,15
2018-01-27T07:36:32.422Z,15
2018-01-27T07:37:41.404Z,20
2018-01-27T07:38:50.235Z,20
2018-01-27T07:39:59.065Z,25
2018-01-27T07:41:08.169Z,25
2018-01-27T07:42:16.999Z,30
2018-01-27T07:43:25.927Z,30
2018-01-27T07:44:34.758Z,30
2018-01-27T07:45:43.594Z,35
2018-01-27T07:46:52.425Z,35
2018-01-27T07:48:01.257Z,35
2018-01-27T07:49:10.138Z,35
2018-01-27T07:50:18.969Z,35
2018-01-27T07:51:27.797Z,35
2018-01-27T07:52:36.660Z,35
2018-01-27T07:53:45.459Z,35
2018-01-27T07:54:54.388Z,40
2018-01-27T07:56:03.219Z,40
2018-01-27T07:57:12.330Z,45
2018-01-27T07:58:21.158Z,50
2018-01-27T07:59:29.987Z,55
2018-01-27T08:00:38.865Z,60
2018-01-27T08:01:47.697Z,65
2018-01-27T08:02:56.531Z,65
2018-01-27T08:04:05.358Z,65
2018-01-27T08:05:14.185Z,65
2018-01-27T08:06:23.416Z,65
2018-01-27T08:07:32.244Z,65
2018-01-27T08:08:41.075Z,70
2018-01-27T08:09:49.907Z,70
2018-01-27T08:10:58.741Z,75
2018-01-27T08:12:07.721Z,75
2018-01-27T08:13:16.550Z,80
2018-01-27T08:14:25.379Z,80
2018-01-27T08:15:34.210Z,80
2018-01-27T08:16:43.041Z,85
2018-01-27T08:17:52.176Z,85
2018-01-27T08:19:01.002Z,85
2018-01-27T08:20:09.833Z,85
2018-01-27T08:21:18.666Z,90
2018-01-27T08:22:27.495Z,90
2018-01-27T08:23:36.676Z,95
2018-01-27T08:24:45.509Z,90
2018-01-27T08:25:54.339Z,85
2018-01-27T08:27:03.172Z,80
2018-01-27T08:28:12.004Z,85
2018-01-27T08:29:20.834Z,85
2018-01-27T08:30:29.662Z,90
2018-01-27T08:31:38.493Z,85
2018-01-27T08:32:47.321Z,85
2018-01-27T08:33:56.151Z,80
2018-01-27T08:35:05.117Z,75
2018-01-27T08:36:14.189Z,70
2018-01-27T08:37:23.016Z,75
2018-01-27T08:38:31.846Z,80
2018-01-27T08:39:40.676Z,85
2018-01-27T08:40:49.604Z,95
2018-01-27T08:41:58.708Z,100
2018-01-27T08:43:07.540Z,100
2018-01-27T08:44:16.373Z,110
2018-01-27T08:45:25.206Z,115
2018-01-27T08:46:34.034Z,120
2018-01-27T08:47:42.863Z,120
2018-01-27T08:48:51.692Z,125
2018-01-27T08:50:00.521Z,135
2018-01-27T08:51:09.352Z,135
2018-01-27T08:52:18.432Z,130
2018-01-27T08:53:27.261Z,125
2018-01-27T08:54:36.098Z,115
2018-01-27T08:55:44.937Z,115
2018-01-27T08:56:53.755Z,120
2018-01-27T08:58:03.178Z,125
2018-01-27T08:59:12.281Z,125
2018-01-27T09:00:21.112Z,125
2018-01-27T09:01:29.942Z,125
2018-01-27T09:02:38.773Z,125
2018-01-27T09:03:47.751Z,125
2018-01-27T09:04:56.580Z,125
2018-01-27T09:06:05.410Z,125
2018-01-27T09:07:14.241Z,125
2018-01-27T09:08:23.070Z,125
2018-01-27T09:09:32.049Z,120
2018-01-27T09:10:40.887Z,115
2018-01-27T09:11:49.713Z,115
2018-01-27T09:12:58.546Z,125
2018-01-27T09:14:07.375Z,130
2018-01-27T09:15:16.355Z,140
2018-01-27T09:16:25.185Z,170
2018-01-27T09:17:34.017Z,175
2018-01-27T09:18:43.131Z,155
2018-01-27T09:19:51.959Z,135
2018-01-27T09:21:00.791Z,125
2018-01-27T09:22:09.622Z,125
2018-01-27T09:23:18.456Z,120
2018-01-27T09:24:27.280Z,110
2018-01-27T09:25:36.112Z,105
2018-01-27T09:26:45.095Z,100
2018-01-27T09:27:53.928Z,105
2018-01-27T09:29:02.765Z,105
2018-01-27T09:30:11.597Z,115
2018-01-27T09:31:20.429Z,135
2018-01-27T09:32:29.261Z,155
2018-01-27T09:33:38.093Z,175
2018-01-27T09:34:46.927Z,185
2018-01-27T09:35:55.760Z,190
2018-01-27T09:37:04.595Z,195
2018-01-27T09:38:13.575Z,210
2018-01-27T09:39:22.401Z,200
2018-01-27T09:40:31.503Z,195
2018-01-27T09:41:40.334Z,180
2018-01-27T09:42:49.442Z,155
2018-01-27T09:43:58.274Z,150
2018-01-27T09:45:07.106Z,155
2018-01-27T09:46:15.938Z,150
2018-01-27T09:47:24.772Z,155
2018-01-27T09:48:33.597Z,150
2018-01-27T09:49:42.580Z,165
2018-01-27T09:50:51.410Z,175
2018-01-27T09:52:00.240Z,195
2018-01-27T09:53:09.074Z,215
2018-01-27T09:54:17.899Z,200
2018-01-27T09:55:26.769Z,205
2018-01-27T09:56:35.600Z,190
2018-01-27T09:57:44.430Z,205
2018-01-27T09:58:53.260Z,210
2018-01-27T10:00:02.092Z,205
2018-01-27T10:01:11.224Z,185
2018-01-27T10:02:20.056Z,185
2018-01-27T10:03:28.886Z,205
2018-01-27T10:04:37.716Z,205
2018-01-27T10:05:46.546Z,195
2018-01-27T10:06:55.376Z,180
2018-01-27T10:08:04.205Z,185
2018-01-27T10:09:13.035Z,180
2018-01-27T10:10:21.868Z,190
2018-01-27T10:11:30.697Z,205
2018-01-27T10:12:39.628Z,230
2018-01-27T10:13:48.458Z,245
2018-01-27T10:14:57.565Z,245
2018-01-27T10:16:06.394Z,265
2018-01-27T10:17:15.224Z,260
2018-01-27T10:18:24.057Z,310
2018-01-27T10:19:32.885Z,305
2018-01-27T10:20:41.715Z,320
2018-01-27T10:21:50.842Z,315
2018-01-27T10:22:59.670Z,285
2018-01-27T10:24:08.774Z,305
2018-01-27T10:25:17.609Z,300
2018-01-27T10:26:26.441Z,300
2018-01-27T10:27:35.271Z,290
2018-01-27T10:28:44.105Z,285
2018-01-27T10:29:53.037Z,240
2018-01-27T10:31:01.872Z,205
2018-01-27T10:32:10.704Z,225
2018-01-27T10:33:19.539Z,220
2018-01-27T10:34:28.373Z,195
2018-01-27T10:35:37.356Z,185
2018-01-27T10:36:46.186Z,160
2018-01-27T10:37:55.019Z,170
2018-01-27T10:39:03.847Z,175
2018-01-27T10:40:12.680Z,185
2018-01-27T10:41:21.562Z,185
2018-01-27T10:42:30.396Z,225
2018-01-27T10:43:39.229Z,280
2018-01-27T10:44:48.343Z,255
2018-01-27T10:45:57.172Z,255
2018-01-27T10:47:06.005Z,270
2018-01-27T10:48:14.834Z,260
2018-01-27T10:49:23.666Z,275
2018-01-27T10:50:32.498Z,275
2018-01-27T10:51:41.328Z,240
2018-01-27T10:52:50.213Z,205
2018-01-27T10:53:59.057Z,210
2018-01-27T10:55:07.922Z,200
2018-01-27T10:56:16.757Z,155
2018-01-27T10:57:25.589Z,170
2018-01-27T10:58:34.695Z,185
2018-01-27T10:59:43.528Z,160
2018-01-27T11:00:52.365Z,155
2018-01-27T11:02:01.194Z,150
2018-01-27T11:03:10.176Z,155
2018-01-27T11:04:19.009Z,145
2018-01-27T11:05:27.843Z,150
2018-01-27T11:06:36.674Z,150
2018-01-27T11:07:45.507Z,140
2018-01-27T11:08:54.338Z,130
2018-01-27T11:10:03.170Z,130
2018-01-27T11:11:12.004Z,125
2018-01-27T11:12:20.834Z,120
2018-01-27T11:13:29.940Z,120
2018-01-27T11:14:38.770Z,115
2018-01-27T11:15:47.602Z,105
2018-01-27T11:16:56.433Z,95
2018-01-27T11:18:05.266Z,100
2018-01-27T11:19:14.101Z,120
2018-01-27T11:20:22.937Z,130
2018-01-27T11:21:31.764Z,115
2018-01-27T11:22:40.875Z,110
2018-01-27T11:23:50.032Z,120
2018-01-27T11:24:58.864Z,120
2018-01-27T11:26:07.695Z,115
2018-01-27T11:27:16.526Z,115
2018-01-27T11:28:25.357Z,105
2018-01-27T11:29:34.188Z,100
2018-01-27T11:30:43.021Z,95
2018-01-27T11:31:51.848Z,95
2018-01-27T11:33:00.682Z,105
2018-01-27T11:34:09.527Z,110
2018-01-27T11:35:18.460Z,105
2018-01-27T11:36:27.300Z,100
2018-01-27T11:37:36.139Z,90
2018-01-27T11:38:44.979Z,100
2018-01-27T11:39:53.823Z,110
2018-01-27T11:41:02.662Z,105
2018-01-27T11:42:11.501Z,135
2018-01-27T11:43:20.340Z,165
2018-01-27T11:44:29.182Z,155
2018-01-27T11:45:38.021Z,145
2018-01-27T11:46:46.913Z,155
2018-01-27T11:47:55.757Z,165
2018-01-27T11:49:04.601Z,165
2018-01-27T11:50:13.442Z,150
2018-01-27T11:51:22.286Z,155
2018-01-27T11:52:31.126Z,155
2018-01-27T11:53:40.245Z,150
2018-01-27T11:54:49.085Z,145
2018-01-27T11:55:57.927Z,150
2018-01-27T11:57:06.761Z,165
2018-01-27T11:58:15.594Z,170
2018-01-27T11:59:24.700Z,170
2018-01-27T12:00:33.533Z,160
2018-01-27T12:01:42.364Z,130
2018-01-27T12:02:51.196Z,115
2018-01-27T12:04:00.033Z,115
2018-01-27T12:05:08.888Z,125
2018-01-27T12:06:18.066Z,120
2018-01-27T12:07:26.907Z,100
2018-01-27T12:08:36.012Z,90
2018-01-27T12:09:44.845Z,90
2018-01-27T12:10:53.677Z,95
2018-01-27T12:12:02.509Z,115
2018-01-27T12:13:11.409Z,135
2018-01-27T12:14:20.241Z,135
2018-01-27T12:15:29.349Z,135
2018-01-27T12:16:38.182Z,120
2018-01-27T12:17:47.026Z,105
2018-01-27T12:18:55.858Z,90
2018-01-27T12:20:04.692Z,90
2018-01-27T12:21:13.622Z,90
2018-01-27T12:22:22.455Z,110
2018-01-27T12:23:31.288Z,155
2018-01-27T12:24:40.120Z,140
2018-01-27T12:25:48.956Z,130
2018-01-27T12:26:57.889Z,130
2018-01-27T12:28:06.722Z,125
2018-01-27T12:29:15.559Z,110
2018-01-27T12:30:24.401Z,110
2018-01-27T12:31:33.231Z,135
2018-01-27T12:32:42.487Z,160
2018-01-27T12:33:51.316Z,160
2018-01-27T12:35:00.149Z,135
2018-01-27T12:36:08.981Z,140
2018-01-27T12:37:17.812Z,190
2018-01-27T12:38:26.795Z,200
2018-01-27T12:39:35.634Z,190
2018-01-27T12:40:44.468Z,185
2018-01-27T12:41:53.299Z,165
2018-01-27T12:43:02.404Z,155
2018-01-27T12:44:11.535Z,150
2018-01-27T12:45:20.364Z,140
2018-01-27T12:46:29.196Z,135
2018-01-27T12:47:38.026Z,140
2018-01-27T12:48:46.859Z,145
2018-01-27T12:49:55.695Z,145
2018-01-27T12:51:04.527Z,135
2018-01-27T12:52:13.359Z,130
2018-01-27T12:53:22.190Z,130
2018-01-27T12:54:31.018Z,125
2018-01-27T12:55:40.150Z,120
2018-01-27T12:56:48.981Z,115
2018-01-27T12:57:57.811Z,110
2018-01-27T12:59:06.645Z,105
2018-01-27T13:00:16.038Z,105
2018-01-27T13:01:24.871Z,100
2018-01-27T13:02:33.701Z,110
2018-01-27T13:03:42.808Z,105
2018-01-27T13:04:51.911Z,110
2018-01-27T13:06:01.022Z,100
2018-01-27T13:07:10.131Z,105
2018-01-27T13:08:18.960Z,115
2018-01-27T13:09:27.789Z,105
2018-01-27T13:10:36.682Z,90
2018-01-27T13:11:45.603Z,95
2018-01-27T13:12:54.546Z,95
2018-01-27T13:14:03.414Z,95
2018-01-27T13:15:12.518Z,85
2018-01-27T13:16:21.375Z,85
2018-01-27T13:17:30.207Z,75
2018-01-27T13:18:39.187Z,80
2018-01-27T13:19:48.017Z,90
2018-01-27T13:20:56.850Z,80
2018-01-27T13:22:05.683Z,75
2018-01-27T13:23:14.515Z,80
2018-01-27T13:24:23.508Z,85
2018-01-27T13:25:32.338Z,70
2018-01-27T13:26:41.169Z,75
2018-01-27T13:27:50.002Z,85
2018-01-27T13:28:58.834Z,80
2018-01-27T13:30:08.016Z,70
2018-01-27T13:31:16.847Z,70
2018-01-27T13:32:25.679Z,85
2018-01-27T13:33:34.789Z,95
2018-01-27T13:34:43.621Z,95
2018-01-27T13:35:52.451Z,95
2018-01-27T13:37:01.318Z,100
2018-01-27T13:38:10.153Z,100
2018-01-27T13:39:18.988Z,105
2018-01-27T13:40:27.816Z,105
2018-01-27T13:41:37.516Z,105
2018-01-27T13:42:46.364Z,115
2018-01-27T13:43:55.216Z,110
2018-01-27T13:45:04.052Z,105
2018-01-27T13:46:12.888Z,100
2018-01-27T13:47:22.363Z,85
2018-01-27T13:48:31.469Z,85
2018-01-27T13:49:40.590Z,90
2018-01-27T13:50:49.424Z,100
2018-01-27T13:51:58.832Z,100
2018-01-27T13:53:07.863Z,95
2018-01-27T13:54:16.742Z,100
2018-01-27T13:55:25.580Z,105
2018-01-27T13:56:34.977Z,115
2018-01-27T13:57:44.077Z,120
2018-01-27T13:58:52.915Z,130
2018-01-27T14:00:01.751Z,135
2018-01-27T14:01:10.630Z,125
2018-01-27T14:02:19.797Z,105
2018-01-27T14:03:28.673Z,100
2018-01-27T14:04:38.265Z,95
2018-01-27T14:05:47.141Z,80
2018-01-27T14:06:56.016Z,80
2018-01-27T14:08:04.850Z,70
2018-01-27T14:09:13.689Z,75
2018-01-27T14:10:22.520Z,85
2018-01-27T14:11:31.640Z,85
2018-01-27T14:12:40.471Z,75
2018-01-27T14:13:49.582Z,75
2018-01-27T14:14:58.413Z,75
2018-01-27T14:16:07.245Z,85
2018-01-27T14:17:16.078Z,100
2018-01-27T14:18:24.912Z,125
2018-01-27T14:19:33.743Z,120
2018-01-27T14:20:42.576Z,130
2018-01-27T14:21:51.410Z,130
2018-01-27T14:23:00.266Z,140
2018-01-27T14:24:09.113Z,145
2018-01-27T14:25:17.946Z,120
2018-01-27T14:26:27.016Z,105
2018-01-27T14:27:35.979Z,100
2018-01-27T14:28:44.811Z,105
2018-01-27T14:29:53.643Z,105
2018-01-27T14:31:02.753Z,110
2018-01-27T14:32:11.585Z,115
2018-01-27T14:33:20.431Z,105
2018-01-27T14:34:29.269Z,100
2018-01-27T14:35:38.383Z,95
2018-01-27T14:36:47.210Z,85
2018-01-27T14:37:56.038Z,90
2018-01-27T14:39:04.872Z,95
2018-01-27T14:40:13.733Z,95
2018-01-27T14:41:22.534Z,105
2018-01-27T14:42:31.366Z,105
2018-01-27T14:43:40.617Z,110
2018-01-27T14:44:49.451Z,120
2018-01-27T14:45:58.554Z,115
2018-01-27T14:47:07.383Z,110
2018-01-27T14:48:16.219Z,110
2018-01-27T14:49:25.320Z,120
2018-01-27T14:50:34.452Z,125
2018-01-27T14:51:43.558Z,110
2018-01-27T14:52:52.387Z,115
2018-01-27T14:54:01.220Z,115
2018-01-27T14:55:10.326Z,115
2018-01-27T14:56:19.257Z,110
2018-01-27T14:57:28.088Z,110
2018-01-27T14:58:36.921Z,120
2018-01-27T14:59:45.750Z,120
2018-01-27T15:00:54.583Z,110
2018-01-27T15:02:03.837Z,110
2018-01-27T15:03:12.668Z,105
2018-01-27T15:04:21.498Z,105
2018-01-27T15:05:30.330Z,105
2018-01-27T15:06:39.162Z,105
2018-01-27T15:07:47.993Z,100
2018-01-27T15:08:56.824Z,100
2018-01-27T15:10:05.660Z,95
2018-01-27T15:11:14.506Z,95
2018-01-27T15:12:23.337Z,90
2018-01-27T15:13:32.321Z,85
2018-01-27T15:14:41.150Z,85
2018-01-27T15:15:49.983Z,80
2018-01-27T15:16:58.818Z,75
2018-01-27T15:18:07.649Z,75
2018-01-27T15:19:16.545Z,65
2018-01-27T15:20:25.430Z,60
2018-01-27T15:21:34.218Z,55
2018-01-27T15:22:43.049Z,50
2018-01-27T15:23:51.881Z,50
2018-01-27T15:25:00.863Z,45
2018-01-27T15:26:09.966Z,45
2018-01-27T15:27:18.795Z,40
2018-01-27T15:28:27.625Z,35
2018-01-27T15:29:36.458Z,35
2018-01-27T15:30:45.588Z,35
2018-01-27T15:31:54.417Z,35
2018-01-27T15:33:03.249Z,30
2018-01-27T15:34:12.080Z,30
2018-01-27T15:35:20.912Z,30
2018-01-27T15:36:29.743Z,30
2018-01-27T15:37:38.572Z,25
2018-01-27T15:38:47.675Z,25
2018-01-27T15:39:56.505Z,25
2018-01-27T15:41:05.337Z,25
2018-01-27T15:42:14.315Z,25
2018-01-27T15:43:23.143Z,20
2018-01-27T15:44:31.975Z,20
2018-01-27T15:45:40.804Z,20
2018-01-27T15:46:49.635Z,15
2018-01-27T15:47:58.464Z,15
2018-01-27T15:49:07.294Z,15
2018-01-27T15:50:16.126Z,15
2018-01-27T15:51:24.986Z,10
2018-01-27T15:52:33.817Z,10
2018-01-27T15:53:42.695Z,10
2018-01-27T15:54:51.525Z,10
2018-01-27T15:56:00.364Z,5
2018-01-27T15:57:09.198Z,5
2018-01-27T15:58:18.051Z,5
2018-01-27T15:59:26.929Z,5
2018-01-27T16:00:36.962Z,5
2018-01-27T16:01:45.800Z,5
2018-01-27T16:02:55.176Z,5
2018-01-27T16:04:04.284Z,0
2018-01-27T16:05:13.218Z,0
2018-01-27T16:06:22.329Z,0
2018-01-27T16:07:31.157Z,0
2018-01-27T16:08:40.008Z,0
2018-01-27T16:09:48.817Z,0
2018-01-27T16:10:57.647Z,0
2018-01-27T16:12:06.478Z,0
2018-01-27T16:13:15.308Z,0
2018-01-27T16:14:24.140Z,0
2018-01-27T16:15:32.972Z,0
2018-01-27T16:16:42.177Z,0
2018-01-27T16:17:51.010Z,0
2018-01-27T16:19:00.112Z,0
2018-01-27T16:20:08.942Z,0
2018-01-27T16:21:17.774Z,0
2018-01-27T16:22:26.906Z,0
2018-01-27T16:23:35.736Z,0
2018-01-27T16:24:44.568Z,0
2018-01-27T16:25:53.395Z,0
2018-01-27T16:27:02.224Z,0
2018-01-27T16:28:11.483Z,0